Time;durP1;ratioP1;P1;durP2;ratioP2;P2;SDS_P1;SDS_P2;PMS_P1;PMS_P2;Temp;Humidity;BMP_temperature;BMP_pressure;BME280_temperature;BME280_humidity;BME280_pressure;Samples;Min_cycle;Max_cycle;Signal;HPM_P1;HPM_P2
2023/08/24 00:01:47;;;;;;;16.50;2.70;;;15.50;40.20;;;;;;5047494;28;20553;-53
2023/08/24 00:04:14;;;;;;;5.07;2.73;;;15.50;42.90;;;;;;5045865;28;20473;-53
2023/08/24 00:06:40;;;;;;;4.20;2.20;;;15.50;47.40;;;;;;5049024;28;20497;-53
2023/08/24 00:09:08;;;;;;;6.30;2.90;;;15.50;42.00;;;;;;5045654;28;20513;-53
2023/08/24 00:11:34;;;;;;;3.60;2.60;;;15.40;39.70;;;;;;5043924;28;20459;-53
2023/08/24 00:14:02;;;;;;;3.07;2.00;;;15.40;38.20;;;;;;5036852;28;20486;-53
2023/08/24 00:16:28;;;;;;;3.00;2.50;;;15.30;37.40;;;;;;5043862;28;20453;-53
2023/08/24 00:18:56;;;;;;;4.47;2.63;;;15.40;39.20;;;;;;5051105;28;20535;-53
2023/08/24 00:21:23;;;;;;;2.80;2.50;;;15.40;39.20;;;;;;5048553;28;20486;-53
2023/08/24 00:23:50;;;;;;;3.50;2.70;;;15.40;40.80;;;;;;5045824;28;20496;-53
2023/08/24 00:26:18;;;;;;;3.23;2.73;;;15.20;37.10;;;;;;5044867;28;20585;-52
2023/08/24 00:28:45;;;;;;;2.53;2.20;;;15.20;34.50;;;;;;5050922;28;20571;-53
2023/08/24 00:31:12;;;;;;;4.53;2.60;;;15.20;37.30;;;;;;5044524;28;20515;-51
2023/08/24 00:33:39;;;;;;;2.90;2.20;;;15.20;33.20;;;;;;5044469;28;20861;-53
2023/08/24 00:36:08;;;;;;;8.63;2.63;;;15.20;37.00;;;;;;5046476;28;20463;-51
2023/08/24 00:38:34;;;;;;;2.93;2.30;;;15.10;32.30;;;;;;5050090;28;20505;-54
2023/08/24 00:41:01;;;;;;;2.90;2.60;;;15.10;27.80;;;;;;5042123;28;20496;-51
2023/08/24 00:43:27;;;;;;;3.97;2.70;;;15.20;27.40;;;;;;5039014;28;20490;-54
2023/08/24 00:45:56;;;;;;;3.33;2.70;;;15.20;25.10;;;;;;5046661;28;20481;-53
2023/08/24 00:48:25;;;;;;;2.20;2.10;;;15.00;30.90;;;;;;5051633;28;20517;-53
2023/08/24 00:50:52;;;;;;;2.43;2.23;;;15.00;24.40;;;;;;5050858;28;20474;-53
2023/08/24 00:53:21;;;;;;;3.37;2.43;;;15.00;23.10;;;;;;5051093;28;20906;-52
2023/08/24 00:55:47;;;;;;;4.97;2.60;;;15.00;24.40;;;;;;5051729;28;20497;-52
2023/08/24 00:58:14;;;;;;;2.00;1.90;;;15.00;25.90;;;;;;5040952;28;21018;-53
2023/08/24 01:00:42;;;;;;;2.77;2.47;;;15.10;28.00;;;;;;5049495;28;20446;-53
2023/08/24 01:03:08;;;;;;;4.27;2.30;;;15.00;29.30;;;;;;5046823;28;20960;-52
2023/08/24 01:05:35;;;;;;;2.50;2.30;;;15.00;29.80;;;;;;5044219;28;20550;-52
2023/08/24 01:08:01;;;;;;;3.93;2.10;;;15.10;29.00;;;;;;5048093;28;20524;-52
2023/08/24 01:10:36;;;;;;;2.70;2.50;;;15.10;28.30;;;;;;5048726;28;21193;-53
2023/08/24 01:13:08;;;;;;;2.23;2.03;;;15.20;29.60;;;;;;5049835;28;20959;-52
2023/08/24 01:15:39;;;;;;;2.50;2.13;;;15.20;29.40;;;;;;5050595;28;20461;-53
2023/08/24 01:18:13;;;;;;;3.53;2.73;;;15.20;30.40;;;;;;5045603;28;20548;-52
2023/08/24 01:20:41;;;;;;;4.23;1.60;;;15.30;30.60;;;;;;5044383;28;20462;-52
2023/08/24 01:23:17;;;;;;;1.90;1.80;;;15.30;31.70;;;;;;5057034;28;20460;-51
2023/08/24 01:25:52;;;;;;;2.83;2.33;;;15.30;31.10;;;;;;5050949;28;20539;-53
2023/08/24 01:28:21;;;;;;;2.57;2.37;;;15.40;32.50;;;;;;5050987;28;20495;-53
2023/08/24 01:30:48;;;;;;;2.50;2.30;;;15.40;35.40;;;;;;5052256;28;20465;-53
2023/08/24 01:33:15;;;;;;;2.67;2.47;;;15.40;33.70;;;;;;5047170;28;20556;-52
2023/08/24 01:35:42;;;;;;;6.10;2.50;;;15.40;32.70;;;;;;5051948;28;20470;-52
2023/08/24 01:38:12;;;;;;;4.10;2.27;;;15.50;33.00;;;;;;5051977;28;20572;-53
2023/08/24 01:40:48;;;;;;;2.60;2.27;;;15.60;36.10;;;;;;5049276;28;20474;-52
2023/08/24 01:43:19;;;;;;;2.57;2.37;;;15.60;36.50;;;;;;5049517;28;20548;-52
2023/08/24 01:45:48;;;;;;;5.03;2.27;;;15.60;36.30;;;;;;5047964;28;21130;-52
2023/08/24 01:48:15;;;;;;;2.60;2.40;;;15.70;35.50;;;;;;5048794;28;20572;-51
2023/08/24 01:50:42;;;;;;;7.23;2.47;;;15.70;36.50;;;;;;5039604;28;20491;-52
2023/08/24 01:53:09;;;;;;;2.73;2.50;;;15.70;35.30;;;;;;5050591;28;20541;-52
2023/08/24 01:55:36;;;;;;;7.13;2.50;;;15.80;41.70;;;;;;5046403;28;20558;-52
2023/08/24 01:58:02;;;;;;;2.73;2.07;;;15.80;42.10;;;;;;5051895;28;20913;-52
2023/08/24 02:00:29;;;;;;;4.63;2.80;;;15.90;41.40;;;;;;5043591;28;20959;-53
2023/08/24 02:02:57;;;;;;;4.60;2.43;;;15.90;38.90;;;;;;5051406;28;20453;-53
2023/08/24 02:05:27;;;;;;;2.93;2.63;;;15.90;39.40;;;;;;5047880;28;20487;-53
2023/08/24 02:07:54;;;;;;;3.77;2.10;;;15.90;40.10;;;;;;5047594;28;20484;-54
2023/08/24 02:10:20;;;;;;;2.67;2.37;;;16.00;41.10;;;;;;5052388;28;20461;-51
2023/08/24 02:12:47;;;;;;;2.90;2.50;;;16.00;41.40;;;;;;5051786;28;20470;-53
2023/08/24 02:15:13;;;;;;;7.67;2.13;;;16.00;41.00;;;;;;5050762;28;20548;-54
2023/08/24 02:17:40;;;;;;;9.27;3.17;;;16.00;41.00;;;;;;5047321;28;20986;-52
2023/08/24 02:20:09;;;;;;;4.20;2.90;;;16.10;41.00;;;;;;5051126;28;21007;-52
2023/08/24 02:22:35;;;;;;;3.67;2.43;;;16.10;44.10;;;;;;5049700;28;20453;-53
2023/08/24 02:25:04;;;;;;;10.13;2.50;;;16.10;44.10;;;;;;5050701;28;20545;-52
2023/08/24 02:27:31;;;;;;;5.17;2.67;;;16.20;43.50;;;;;;5043598;28;20461;-52
2023/08/24 02:29:57;;;;;;;2.90;2.60;;;16.20;42.90;;;;;;5049899;28;20568;-53
2023/08/24 02:32:24;;;;;;;3.90;2.57;;;16.20;45.20;;;;;;5048567;28;20979;-53
2023/08/24 02:34:51;;;;;;;3.50;2.40;;;16.20;43.80;;;;;;5048678;28;20541;-52
2023/08/24 02:37:19;;;;;;;2.57;2.37;;;16.20;44.20;;;;;;5041453;28;20458;-52
2023/08/24 02:39:45;;;;;;;4.60;2.60;;;16.20;46.50;;;;;;5040203;28;21047;-52
2023/08/24 02:42:12;;;;;;;6.13;3.17;;;16.30;44.00;;;;;;5044691;28;20959;-52
2023/08/24 02:44:38;;;;;;;3.63;2.53;;;16.30;44.00;;;;;;5045748;28;20542;-52
2023/08/24 02:47:05;;;;;;;3.10;2.40;;;16.30;44.10;;;;;;5043626;28;20557;-54
2023/08/24 02:49:32;;;;;;;2.73;2.50;;;16.30;47.50;;;;;;5051885;28;20589;-52
2023/08/24 02:51:58;;;;;;;7.20;2.87;;;16.30;48.80;;;;;;5043826;28;20553;-52
2023/08/24 02:54:26;;;;;;;5.50;3.07;;;16.30;46.80;;;;;;5048131;28;20584;-53
2023/08/24 02:56:54;;;;;;;3.83;2.57;;;16.30;46.60;;;;;;5043833;28;20597;-51
2023/08/24 02:59:20;;;;;;;5.13;2.47;;;16.30;48.60;;;;;;5042829;28;20509;-52
2023/08/24 03:01:47;;;;;;;3.27;2.60;;;16.30;49.40;;;;;;5047471;28;20593;-53
2023/08/24 03:04:13;;;;;;;3.20;2.63;;;16.30;48.80;;;;;;5043865;28;20493;-53
2023/08/24 03:06:40;;;;;;;3.53;2.83;;;16.30;47.00;;;;;;5048666;28;20489;-54
2023/08/24 03:09:07;;;;;;;4.60;2.63;;;16.40;45.00;;;;;;5051337;28;20514;-54
2023/08/24 03:11:34;;;;;;;3.20;2.47;;;16.40;47.60;;;;;;5048953;28;20552;-53
2023/08/24 03:14:01;;;;;;;4.13;2.53;;;16.40;50.50;;;;;;5047738;28;20470;-52
2023/08/24 03:16:28;;;;;;;2.67;2.47;;;16.40;48.40;;;;;;5056929;28;20501;-52
2023/08/24 03:18:54;;;;;;;2.30;2.10;;;16.40;49.30;;;;;;5060227;28;20564;-53
2023/08/24 03:21:21;;;;;;;4.57;2.50;;;16.50;47.80;;;;;;5051751;28;20931;-53
2023/08/24 03:23:47;;;;;;;2.27;2.03;;;16.40;48.70;;;;;;5044448;28;20470;-53
2023/08/24 03:26:15;;;;;;;2.27;2.17;;;16.50;48.30;;;;;;5048227;28;20473;-53
2023/08/24 03:28:43;;;;;;;2.17;1.97;;;16.50;48.80;;;;;;5048269;28;20478;-53
2023/08/24 03:31:09;;;;;;;3.13;2.50;;;16.50;48.30;;;;;;5049100;28;21524;-52
2023/08/24 03:33:36;;;;;;;3.10;2.80;;;16.50;46.60;;;;;;5048201;28;20488;-54
2023/08/24 03:36:03;;;;;;;3.10;2.80;;;16.50;49.20;;;;;;5044393;28;20474;-51
2023/08/24 03:38:30;;;;;;;2.53;2.33;;;16.60;48.60;;;;;;5049842;28;20485;-52
2023/08/24 03:41:01;;;;;;;2.30;2.10;;;16.60;44.80;;;;;;5045101;28;20494;-52
2023/08/24 03:43:28;;;;;;;2.80;2.60;;;16.60;45.70;;;;;;5047045;28;20540;-52
2023/08/24 03:45:56;;;;;;;3.50;3.20;;;16.60;45.50;;;;;;5057185;28;20508;-52
2023/08/24 03:48:22;;;;;;;3.13;2.50;;;16.60;47.20;;;;;;5045874;28;20569;-52
2023/08/24 03:50:49;;;;;;;4.50;2.60;;;16.70;44.20;;;;;;5050808;28;20548;-52
2023/08/24 03:53:15;;;;;;;2.83;2.60;;;16.70;43.90;;;;;;5047254;28;21023;-52
2023/08/24 03:55:42;;;;;;;3.37;3.07;;;16.70;45.00;;;;;;5045738;28;20494;-52
2023/08/24 03:58:08;;;;;;;3.97;2.63;;;16.80;45.40;;;;;;5046177;28;20482;-52
2023/08/24 04:00:35;;;;;;;5.70;2.20;;;16.70;46.80;;;;;;5047478;28;20545;-52
2023/08/24 04:03:03;;;;;;;3.70;2.97;;;16.80;42.90;;;;;;5049115;28;20913;-53
2023/08/24 04:05:29;;;;;;;2.77;2.57;;;16.80;41.30;;;;;;5046648;28;20861;-52
2023/08/24 04:07:56;;;;;;;3.43;2.60;;;16.80;42.70;;;;;;5044909;28;21967;-53
2023/08/24 04:10:23;;;;;;;5.90;2.90;;;16.90;42.10;;;;;;5045548;28;20461;-52
2023/08/24 04:12:49;;;;;;;2.73;2.53;;;16.90;40.30;;;;;;5048172;28;20486;-52
2023/08/24 04:15:16;;;;;;;3.80;2.60;;;16.90;41.20;;;;;;5043208;28;20500;-51
2023/08/24 04:17:42;;;;;;;8.73;3.17;;;17.00;40.70;;;;;;5044204;28;21138;-52
2023/08/24 04:20:12;;;;;;;5.20;2.90;;;17.00;41.20;;;;;;5049595;28;20494;-53
2023/08/24 04:22:38;;;;;;;5.63;3.23;;;17.00;40.30;;;;;;5043421;28;20532;-52
2023/08/24 04:25:06;;;;;;;2.90;2.70;;;17.00;38.50;;;;;;5042969;28;20490;-52
2023/08/24 04:27:33;;;;;;;5.50;2.30;;;17.00;39.60;;;;;;5047788;28;20815;-52
2023/08/24 04:30:00;;;;;;;7.40;3.03;;;17.10;41.30;;;;;;5049415;28;20482;-52
2023/08/24 04:32:27;;;;;;;5.70;3.00;;;17.20;31.60;;;;;;5047891;28;20458;-53
2023/08/24 04:34:54;;;;;;;3.27;2.97;;;17.20;37.00;;;;;;5045978;28;20541;-53
2023/08/24 04:37:22;;;;;;;3.17;2.87;;;17.20;37.00;;;;;;5050028;28;20463;-52
2023/08/24 04:39:49;;;;;;;4.00;2.73;;;17.20;37.80;;;;;;5048260;28;21342;-52
2023/08/24 04:42:15;;;;;;;3.50;3.10;;;17.30;35.90;;;;;;5051141;28;20896;-52
2023/08/24 04:44:42;;;;;;;3.27;2.40;;;17.30;35.20;;;;;;5045592;28;20970;-52
2023/08/24 04:47:09;;;;;;;4.77;2.90;;;17.30;35.00;;;;;;5042096;28;20457;-52
2023/08/24 04:49:37;;;;;;;5.40;3.20;;;17.30;33.10;;;;;;5046547;28;20481;-52
2023/08/24 04:52:04;;;;;;;3.42;2.15;;;17.40;31.20;;;;;;5044611;28;20535;-52
2023/08/24 04:54:31;;;;;;;6.00;2.80;;;17.40;32.40;;;;;;5048325;28;20195;-52
2023/08/24 04:56:58;;;;;;;4.47;2.80;;;17.40;33.80;;;;;;5050342;28;20513;-52
2023/08/24 04:59:24;;;;;;;4.97;2.77;;;17.40;35.40;;;;;;5049360;28;20482;-52
2023/08/24 05:01:51;;;;;;;9.93;3.00;;;17.50;36.20;;;;;;5049225;28;20496;-52
2023/08/24 05:04:17;;;;;;;4.50;2.67;;;17.50;38.10;;;;;;5042465;28;20589;-51
2023/08/24 05:06:44;;;;;;;4.23;3.20;;;17.60;38.00;;;;;;5040848;28;20493;-52
2023/08/24 05:09:11;;;;;;;3.60;2.90;;;17.60;33.60;;;;;;5040934;28;20569;-52
2023/08/24 05:11:39;;;;;;;3.00;2.70;;;17.70;33.20;;;;;;5045278;28;20485;-51
2023/08/24 05:14:05;;;;;;;6.60;3.97;;;17.70;32.80;;;;;;5047832;28;20586;-51
2023/08/24 05:16:32;;;;;;;5.67;3.03;;;17.80;33.10;;;;;;5040135;28;20548;-52
2023/08/24 05:18:58;;;;;;;3.83;3.20;;;17.80;32.00;;;;;;5045198;28;20510;-51
2023/08/24 05:21:25;;;;;;;4.90;3.07;;;17.80;31.80;;;;;;5041964;28;20537;-52
2023/08/24 05:23:51;;;;;;;6.20;2.97;;;17.90;34.30;;;;;;5042997;28;20778;-51
2023/08/24 05:26:22;;;;;;;6.70;3.23;;;18.00;32.90;;;;;;5044131;28;20545;-51
2023/08/24 05:28:50;;;;;;;3.53;3.20;;;18.00;32.30;;;;;;5041619;28;20508;-51
2023/08/24 05:31:17;;;;;;;18.63;3.43;;;18.10;41.00;;;;;;5047685;28;20462;-52
2023/08/24 05:33:44;;;;;;;4.87;3.00;;;18.10;46.50;;;;;;5045849;28;20565;-52
2023/08/24 05:36:10;;;;;;;10.40;3.03;;;18.20;49.20;;;;;;5045289;28;20466;-52
2023/08/24 05:38:37;;;;;;;4.30;3.10;;;18.20;50.40;;;;;;5046724;28;20540;-52
2023/08/24 05:41:04;;;;;;;12.53;3.43;;;18.20;56.70;;;;;;5042490;28;20969;-52
2023/08/24 05:43:31;;;;;;;16.50;3.63;;;18.30;67.90;;;;;;5040456;28;20473;-51
2023/08/24 05:45:59;;;;;;;6.87;3.57;;;18.30;71.10;;;;;;5038848;28;20494;-52
2023/08/24 05:48:25;;;;;;;4.07;2.90;;;18.40;73.50;;;;;;5040555;28;20497;-52
2023/08/24 05:50:52;;;;;;;7.10;3.37;;;18.40;71.00;;;;;;5049753;28;20493;-51
2023/08/24 05:53:18;;;;;;;10.57;4.00;;;18.40;67.80;;;;;;5050077;28;21010;-53
2023/08/24 05:55:45;;;;;;;6.67;3.60;;;18.40;67.00;;;;;;5048947;28;20541;-53
2023/08/24 05:58:11;;;;;;;6.57;4.23;;;18.40;66.10;;;;;;5039806;28;20906;-52
2023/08/24 06:00:38;;;;;;;7.90;3.90;;;18.50;65.70;;;;;;5053384;28;20486;-54
2023/08/24 06:03:06;;;;;;;5.90;3.40;;;18.50;65.50;;;;;;5052972;28;20544;-53
2023/08/24 06:05:32;;;;;;;5.43;3.83;;;18.60;64.50;;;;;;5054050;28;20515;-53
2023/08/24 06:07:59;;;;;;;8.30;4.10;;;18.60;65.50;;;;;;5050104;28;20509;-53
2023/08/24 06:10:27;;;;;;;8.13;4.30;;;18.60;66.90;;;;;;5051055;28;20484;-53
2023/08/24 06:12:53;;;;;;;7.47;3.67;;;18.80;67.40;;;;;;5050202;28;20480;-53
2023/08/24 06:15:23;;;;;;;6.87;3.70;;;18.80;73.30;;;;;;5050046;28;21434;-53
2023/08/24 06:17:50;;;;;;;6.67;2.93;;;18.90;79.90;;;;;;5047657;28;20466;-53
2023/08/24 06:20:19;;;;;;;6.77;3.40;;;18.90;81.10;;;;;;5053232;28;20462;-53
2023/08/24 06:22:46;;;;;;;6.83;4.03;;;19.00;83.40;;;;;;5047212;28;20518;-53
2023/08/24 06:25:13;;;;;;;5.10;3.33;;;19.10;86.90;;;;;;5053517;28;20454;-53
2023/08/24 06:27:39;;;;;;;12.70;3.40;;;19.20;87.00;;;;;;5049239;28;20542;-54
2023/08/24 06:30:07;;;;;;;8.50;2.80;;;19.30;90.00;;;;;;5054160;28;20928;-54
2023/08/24 06:32:33;;;;;;;7.03;3.50;;;19.40;96.60;;;;;;5050716;28;20465;-53
2023/08/24 06:35:00;;;;;;;2.83;2.37;;;19.50;99.20;;;;;;5053105;28;20561;-53
2023/08/24 06:37:28;;;;;;;4.80;3.03;;;19.60;99.90;;;;;;5046517;28;20956;-54
2023/08/24 06:39:54;;;;;;;6.23;2.57;;;19.70;99.90;;;;;;5051665;28;20572;-55
2023/08/24 06:42:21;;;;;;;5.23;2.80;;;19.80;99.90;;;;;;5043946;28;20560;-54
2023/08/24 06:44:49;;;;;;;10.77;2.83;;;19.90;99.90;;;;;;5047254;28;20493;-53
2023/08/24 06:47:16;;;;;;;5.40;2.80;;;20.00;99.90;;;;;;5051823;28;20462;-55
2023/08/24 06:49:43;;;;;;;5.83;3.00;;;20.00;99.90;;;;;;5047618;28;20505;-53
2023/08/24 06:52:09;;;;;;;6.13;3.20;;;20.10;99.90;;;;;;5049415;28;20536;-54
2023/08/24 06:54:37;;;;;;;12.33;3.23;;;20.10;99.90;;;;;;5057553;28;20500;-55
2023/08/24 06:57:04;;;;;;;5.20;3.13;;;20.20;99.90;;;;;;5041699;28;20571;-54
2023/08/24 06:59:31;;;;;;;4.53;3.30;;;20.20;99.90;;;;;;5048994;28;20473;-53
2023/08/24 07:01:58;;;;;;;12.63;4.00;;;20.30;99.90;;;;;;5049506;28;21481;-55
2023/08/24 07:04:25;;;;;;;7.80;3.53;;;20.30;99.90;;;;;;5046393;28;21181;-53
2023/08/24 07:06:52;;;;;;;4.60;3.17;;;20.40;99.90;;;;;;5049364;28;20545;-53
2023/08/24 07:09:19;;;;;;;3.83;3.10;;;20.40;99.90;;;;;;5049727;28;20575;-52
2023/08/24 07:11:47;;;;;;;14.33;3.60;;;20.50;99.90;;;;;;5044192;28;20548;-51
2023/08/24 07:14:14;;;;;;;8.33;3.80;;;20.50;99.90;;;;;;5042648;28;20536;-54
2023/08/24 07:16:41;;;;;;;11.93;3.70;;;20.50;99.90;;;;;;5049925;28;20464;-55
2023/08/24 07:19:08;;;;;;;7.27;3.47;;;20.60;99.90;;;;;;5053148;28;20509;-53
2023/08/24 07:21:35;;;;;;;10.67;3.40;;;20.60;99.90;;;;;;5047297;28;20460;-55
2023/08/24 07:24:01;;;;;;;10.20;3.00;;;20.70;99.90;;;;;;5041471;28;20561;-54
2023/08/24 07:26:30;;;;;;;12.50;3.60;;;20.70;99.90;;;;;;5045507;28;20972;-54
2023/08/24 07:28:58;;;;;;;7.83;3.40;;;20.80;99.90;;;;;;5045097;28;20482;-53
2023/08/24 07:31:24;;;;;;;9.77;3.30;;;20.90;99.90;;;;;;5047343;28;20557;-51
2023/08/24 07:33:51;;;;;;;5.20;3.13;;;21.00;99.90;;;;;;5044135;28;20506;-53
2023/08/24 07:36:18;;;;;;;4.00;2.57;;;21.10;99.90;;;;;;5050744;28;20501;-53
2023/08/24 07:38:46;;;;;;;6.87;2.40;;;21.20;99.90;;;;;;5049513;28;20489;-51
2023/08/24 07:41:13;;;;;;;2.70;2.50;;;21.30;99.90;;;;;;5048424;28;20457;-54
2023/08/24 07:43:39;;;;;;;12.17;2.90;;;21.40;99.90;;;;;;5050190;28;20472;-55
2023/08/24 07:46:07;;;;;;;8.53;2.80;;;21.50;99.90;;;;;;5048463;28;20574;-54
2023/08/24 07:48:34;;;;;;;13.43;2.40;;;21.70;99.90;;;;;;5050554;28;21078;-54
2023/08/24 07:51:00;;;;;;;11.13;3.33;;;22.00;99.90;;;;;;5051009;28;20513;-53
2023/08/24 07:53:27;;;;;;;6.73;2.40;;;22.10;99.90;;;;;;5045035;28;20558;-53
2023/08/24 07:55:54;;;;;;;9.50;2.77;;;22.20;99.90;;;;;;5042164;28;20519;-53
2023/08/24 07:58:20;;;;;;;8.63;3.30;;;22.30;99.90;;;;;;5040124;28;20571;-53
2023/08/24 08:00:50;;;;;;;5.60;2.30;;;22.40;99.90;;;;;;5039167;28;20486;-54
2023/08/24 08:03:18;;;;;;;13.50;2.90;;;22.40;99.90;;;;;;5048356;28;20462;-53
2023/08/24 08:05:45;;;;;;;4.33;2.07;;;22.50;22.90;;;;;;5046411;28;20964;-52
2023/08/24 08:08:11;;;;;;;10.70;3.10;;;22.50;25.90;;;;;;5047233;28;21087;-54
2023/08/24 08:10:38;;;;;;;3.13;2.80;;;22.60;33.70;;;;;;5049976;28;20505;-54
2023/08/24 08:13:04;;;;;;;7.67;3.30;;;22.70;33.70;;;;;;5050044;28;20554;-53
2023/08/24 08:15:31;;;;;;;4.03;2.30;;;22.80;41.30;;;;;;5049348;28;20470;-53
2023/08/24 08:17:57;;;;;;;7.63;3.20;;;22.70;45.80;;;;;;5034819;28;20569;-54
2023/08/24 08:20:26;;;;;;;7.63;2.73;;;22.70;52.30;;;;;;5050429;28;20549;-53
2023/08/24 08:22:52;;;;;;;10.13;2.40;;;22.60;49.90;;;;;;5052291;28;20545;-53
2023/08/24 08:25:19;;;;;;;3.67;1.90;;;22.60;44.90;;;;;;5047423;28;21001;-53
2023/08/24 08:27:45;;;;;;;3.00;2.23;;;22.60;38.10;;;;;;5050928;28;20489;-54
2023/08/24 08:30:13;;;;;;;5.43;2.53;;;22.50;40.20;;;;;;5049308;28;20535;-54
2023/08/24 08:32:39;;;;;;;2.77;2.50;;;22.50;45.60;;;;;;5045393;28;20517;-53
2023/08/24 08:35:07;;;;;;;14.73;2.37;;;22.40;49.90;;;;;;5049236;28;20497;-54
2023/08/24 08:37:35;;;;;;;4.60;2.37;;;22.40;40.40;;;;;;5045386;28;20532;-53
2023/08/24 08:40:05;;;;;;;10.13;3.23;;;22.40;50.60;;;;;;5049276;28;20473;-54
2023/08/24 08:42:33;;;;;;;5.60;2.60;;;22.40;50.40;;;;;;5046851;28;20832;-53
2023/08/24 08:45:02;;;;;;;5.80;2.57;;;22.30;47.30;;;;;;5050329;28;20461;-54
2023/08/24 08:47:29;;;;;;;13.40;2.57;;;22.40;45.40;;;;;;5048735;28;20496;-53
2023/08/24 08:49:56;;;;;;;12.20;2.53;;;22.40;35.40;;;;;;5043570;28;20525;-53
2023/08/24 08:52:25;;;;;;;15.93;3.10;;;22.50;38.60;;;;;;5052468;28;20809;-54
2023/08/24 08:54:53;;;;;;;5.53;2.73;;;22.50;32.50;;;;;;5054124;28;20464;-53
2023/08/24 08:57:23;;;;;;;20.37;2.80;;;22.70;32.80;;;;;;5049978;28;20497;-54
2023/08/24 08:59:51;;;;;;;8.33;2.80;;;22.80;36.50;;;;;;5039192;28;20510;-54
2023/08/24 09:02:20;;;;;;;3.70;2.27;;;23.00;68.00;;;;;;5047271;28;20454;-53
2023/08/24 09:04:50;;;;;;;13.97;2.60;;;23.10;64.30;;;;;;5046736;28;20489;-52
2023/08/24 09:07:17;;;;;;;7.80;3.10;;;23.00;70.10;;;;;;5046513;28;20500;-53
2023/08/24 09:09:43;;;;;;;6.13;2.60;;;23.10;70.00;;;;;;5044854;28;20549;-54
2023/08/24 09:12:11;;;;;;;7.80;2.40;;;23.30;66.80;;;;;;5048685;28;20495;-53
2023/08/24 09:14:39;;;;;;;5.60;2.50;;;23.50;80.70;;;;;;5041326;28;20556;-53
2023/08/24 09:17:06;;;;;;;7.67;2.70;;;24.20;94.50;;;;;;5048252;28;20568;-54
2023/08/24 09:19:35;;;;;;;2.73;2.47;;;24.60;95.70;;;;;;5051426;28;20570;-54
2023/08/24 09:22:03;;;;;;;3.43;2.33;;;24.80;99.90;;;;;;5053103;28;20553;-54
2023/08/24 09:24:33;;;;;;;6.13;2.20;;;24.90;99.90;;;;;;5050458;28;20820;-55
2023/08/24 09:27:00;;;;;;;4.40;2.33;;;24.90;99.90;;;;;;5053981;28;20552;-54
2023/08/24 09:29:37;;;;;;;5.30;2.77;;;25.00;99.90;;;;;;5048474;28;20477;-54
2023/08/24 09:32:04;;;;;;;6.90;2.30;;;25.10;99.90;;;;;;5054140;28;20532;-54
2023/08/24 09:34:30;;;;;;;5.40;2.50;;;25.10;99.90;;;;;;5053466;28;21009;-54
2023/08/24 09:36:58;;;;;;;5.07;2.40;;;25.20;99.90;;;;;;5053594;28;20459;-52
2023/08/24 09:39:24;;;;;;;9.50;2.70;;;25.30;99.90;;;;;;5052221;28;20502;-51
2023/08/24 09:41:51;;;;;;;9.20;2.53;;;25.50;99.90;;;;;;5038826;28;20676;-53
2023/08/24 09:44:18;;;;;;;6.17;2.80;;;25.60;99.90;;;;;;5038847;28;20497;-52
2023/08/24 09:46:46;;;;;;;5.87;2.97;;;25.70;99.90;;;;;;5049907;28;20493;-52
2023/08/24 09:49:13;;;;;;;5.23;2.63;;;25.90;99.90;;;;;;5046275;28;20487;-51
2023/08/24 09:51:41;;;;;;;5.33;2.13;;;25.90;99.90;;;;;;5051246;28;20636;-52
2023/08/24 09:54:10;;;;;;;18.13;2.00;;;25.60;99.90;;;;;;5043581;28;20585;-52
2023/08/24 09:56:38;;;;;;;4.67;1.60;;;25.70;99.90;;;;;;5050040;28;20490;-51
2023/08/24 09:59:13;;;;;;;8.33;2.27;;;25.80;99.90;;;;;;5052420;28;20550;-53
2023/08/24 10:01:43;;;;;;;6.37;1.90;;;26.20;99.90;;;;;;5051635;28;20453;-52
2023/08/24 10:04:12;;;;;;;3.30;1.53;;;26.60;99.90;;;;;;5044303;28;20852;-53
2023/08/24 10:06:40;;;;;;;4.50;2.27;;;27.00;99.90;;;;;;5050881;28;20548;-53
2023/08/24 10:09:08;;;;;;;5.13;1.87;;;26.90;99.90;;;;;;5056784;28;20484;-53
2023/08/24 10:11:40;;;;;;;5.33;1.90;;;27.30;99.90;;;;;;5053319;28;21002;-54
2023/08/24 10:14:13;;;;;;;2.77;1.67;;;28.20;1.40;;;;;;5051717;28;20564;-52
2023/08/24 10:16:41;;;;;;;5.00;2.50;;;29.10;99.90;;;;;;5052098;28;20531;-53
2023/08/24 10:19:09;;;;;;;6.50;1.57;;;29.50;99.90;;;;;;5061806;28;20515;-52
2023/08/24 10:21:39;;;;;;;3.90;2.03;;;30.30;99.90;;;;;;5045177;28;20509;-54
2023/08/24 10:24:06;;;;;;;2.13;1.73;;;30.00;99.90;;;;;;5047323;28;20496;-51
2023/08/24 10:26:33;;;;;;;3.80;1.70;;;30.30;99.90;;;;;;5052851;28;20897;-52
2023/08/24 10:29:01;;;;;;;5.60;1.60;;;30.00;99.90;;;;;;5052816;28;20576;-52
2023/08/24 10:31:28;;;;;;;2.67;1.23;;;30.40;99.90;;;;;;5052137;28;20565;-53
2023/08/24 10:33:55;;;;;;;5.67;1.70;;;30.70;99.90;;;;;;5052225;28;20499;-52
2023/08/24 10:36:24;;;;;;;2.87;1.83;;;29.80;99.90;;;;;;5048819;28;21042;-52
2023/08/24 10:38:56;;;;;;;4.50;2.10;;;28.80;99.90;;;;;;5045603;28;20582;-53
2023/08/24 10:41:27;;;;;;;3.37;1.93;;;29.20;99.90;;;;;;5043369;28;20577;-53
2023/08/24 10:44:07;;;;;;;1.33;1.23;;;29.70;99.90;;;;;;5045195;28;20511;-53
2023/08/24 10:46:36;;;;;;;1.77;1.47;;;29.60;99.90;;;;;;5053621;28;20461;-51
2023/08/24 10:49:05;;;;;;;3.00;2.10;;;29.00;99.90;;;;;;5049169;28;20839;-53
2023/08/24 10:51:31;;;;;;;2.80;1.83;;;29.60;99.90;;;;;;5052558;28;20527;-51
2023/08/24 10:54:02;;;;;;;4.20;1.87;;;30.40;99.90;;;;;;5037007;28;20475;-53
2023/08/24 10:56:36;;;;;;;4.27;1.57;;;30.00;99.90;;;;;;5049707;28;20448;-51
2023/08/24 10:59:13;;;;;;;4.73;2.83;;;29.40;99.90;;;;;;5044392;28;21003;-53
2023/08/24 11:01:41;;;;;;;5.17;1.70;;;29.50;99.90;;;;;;5046613;28;20538;-51
2023/08/24 11:04:08;;;;;;;2.00;1.77;;;29.50;99.90;;;;;;5036361;28;21234;-52
2023/08/24 11:06:35;;;;;;;2.77;1.90;;;29.00;99.90;;;;;;5062077;28;20993;-51
2023/08/24 11:09:13;;;;;;;3.90;1.73;;;28.70;99.90;;;;;;5048672;28;20494;-53
2023/08/24 11:11:41;;;;;;;9.93;1.57;;;28.80;99.90;;;;;;5041884;28;20492;-53
2023/08/24 11:14:19;;;;;;;2.80;1.23;;;28.70;99.90;;;;;;5049832;28;20840;-54
2023/08/24 11:16:47;;;;;;;2.40;1.80;;;28.50;99.90;;;;;;5045177;28;20490;-52
2023/08/24 11:19:14;;;;;;;12.97;1.70;;;28.40;99.90;;;;;;5039685;28;20505;-52
2023/08/24 11:21:42;;;;;;;5.70;2.20;;;28.70;99.90;;;;;;5051148;28;20453;-52
2023/08/24 11:24:10;;;;;;;1.83;1.60;;;28.60;99.90;;;;;;5049692;28;20458;-51
2023/08/24 11:26:41;;;;;;;4.90;1.90;;;28.60;99.90;;;;;;5052049;28;20485;-51
2023/08/24 11:29:08;;;;;;;8.00;1.67;;;28.20;99.90;;;;;;5049761;28;20477;-51
2023/08/24 11:31:35;;;;;;;3.43;1.40;;;27.70;99.90;;;;;;5050030;28;20506;-53
2023/08/24 11:34:02;;;;;;;2.97;1.70;;;27.80;99.90;;;;;;5057301;28;20533;-54
2023/08/24 11:36:29;;;;;;;7.10;2.10;;;28.10;99.90;;;;;;5048961;28;20509;-51
2023/08/24 11:38:58;;;;;;;6.53;1.50;;;27.70;99.90;;;;;;5047805;28;20497;-52
2023/08/24 11:41:27;;;;;;;2.13;1.70;;;27.70;99.90;;;;;;5052800;28;20951;-52
2023/08/24 11:44:00;;;;;;;4.00;1.70;;;27.90;99.90;;;;;;5062834;28;20464;-51
2023/08/24 11:46:28;;;;;;;2.40;1.67;;;27.80;99.90;;;;;;5051533;28;20875;-53
2023/08/24 11:48:55;;;;;;;3.63;1.73;;;27.80;99.90;;;;;;5051110;28;20489;-54
2023/08/24 11:51:21;;;;;;;9.30;2.17;;;27.70;99.90;;;;;;5049140;28;20569;-52
2023/08/24 11:53:48;;;;;;;13.23;2.17;;;27.90;99.90;;;;;;5036757;28;20474;-53
2023/08/24 11:56:16;;;;;;;4.97;1.97;;;27.90;99.90;;;;;;5032617;28;20486;-54
2023/08/24 11:58:48;;;;;;;7.20;2.27;;;28.00;99.90;;;;;;5053835;28;20564;-52
2023/08/24 12:01:15;;;;;;;3.17;2.03;;;28.00;99.90;;;;;;5051139;28;20523;-52
2023/08/24 12:03:42;;;;;;;5.77;2.10;;;28.30;99.90;;;;;;5042611;28;20490;-53
2023/08/24 12:06:13;;;;;;;7.40;1.60;;;28.20;99.90;;;;;;5046669;28;20458;-53
2023/08/24 12:08:41;;;;;;;7.50;1.70;;;28.30;99.90;;;;;;5042730;28;20501;-53
2023/08/24 12:11:15;;;;;;;2.83;2.00;;;28.20;99.90;;;;;;5048042;28;20489;-53
2023/08/24 12:13:47;;;;;;;3.23;1.70;;;27.50;99.90;;;;;;5053791;28;20860;-52
2023/08/24 12:16:16;;;;;;;1.93;1.80;;;27.70;99.90;;;;;;5049243;28;20545;-53
2023/08/24 12:18:54;;;;;;;3.07;1.57;;;27.90;99.90;;;;;;5049728;28;20484;-53
2023/08/24 12:21:22;;;;;;;1.83;1.40;;;28.30;99.90;;;;;;5051163;28;20454;-52
2023/08/24 12:23:59;;;;;;;7.40;2.23;;;28.40;99.90;;;;;;5037800;28;20466;-52
2023/08/24 12:26:27;;;;;;;8.40;2.17;;;28.10;99.90;;;;;;5037433;28;20515;-53
2023/08/24 12:29:00;;;;;;;11.63;2.67;;;27.90;99.90;;;;;;5047588;28;20523;-53
2023/08/24 12:31:28;;;;;;;8.50;1.90;;;27.90;99.90;;;;;;5050861;28;20558;-54
2023/08/24 12:34:03;;;;;;;5.60;2.40;;;28.10;99.90;;;;;;5039411;28;20472;-50
2023/08/24 12:36:29;;;;;;;20.20;3.10;;;28.30;99.90;;;;;;5047365;28;20481;-53
2023/08/24 12:38:56;;;;;;;1.87;1.70;;;28.30;99.90;;;;;;5045857;28;20576;-51
2023/08/24 12:41:23;;;;;;;4.33;2.50;;;28.30;99.90;;;;;;5051555;28;20507;-53
2023/08/24 12:43:50;;;;;;;3.60;2.30;;;28.70;99.90;;;;;;5049689;28;20500;-51
2023/08/24 12:46:18;;;;;;;8.13;2.30;;;29.80;99.90;;;;;;5049909;28;20529;-53
2023/08/24 12:48:45;;;;;;;4.07;2.20;;;30.50;99.90;;;;;;5041511;28;21054;-52